createdAt,value
2018-11-27T00:00:31.028Z,65.57
2018-11-27T00:03:00.641Z,59.10
2018-11-27T00:05:30.076Z,53.77
2018-11-27T00:07:58.676Z,53.53
2018-11-27T00:10:27.504Z,63.30
2018-11-27T00:12:56.400Z,56.47
2018-11-27T00:15:25.212Z,63.90
2018-11-27T00:17:53.700Z,58.93
2018-11-27T00:20:22.163Z,60.77
2018-11-27T00:22:50.661Z,62.60
2018-11-27T00:25:19.511Z,63.23
2018-11-27T00:27:48.112Z,63.90
2018-11-27T00:30:17.991Z,59.27
2018-11-27T00:32:46.500Z,62.90
2018-11-27T00:35:16.200Z,70.50
2018-11-27T00:37:44.703Z,63.43
2018-11-27T00:40:16.823Z,66.22
2018-11-27T00:42:45.375Z,61.97
2018-11-27T00:45:15.003Z,57.83
2018-11-27T00:47:44.215Z,56.13
2018-11-27T00:50:21.714Z,50.30
2018-11-27T00:52:50.428Z,54.57
2018-11-27T00:55:19.871Z,60.57
2018-11-27T00:57:50.611Z,49.53
2018-11-27T01:00:20.974Z,52.53
2018-11-27T01:02:49.535Z,49.63
2018-11-27T01:05:20.280Z,53.40
2018-11-27T01:07:49.075Z,55.00
2018-11-27T01:10:22.338Z,48.40
2018-11-27T01:12:50.898Z,48.47
2018-11-27T01:15:19.394Z,56.83
2018-11-27T01:17:49.199Z,50.83
2018-11-27T01:20:18.680Z,54.53
2018-11-27T01:22:47.184Z,52.77
2018-11-27T01:25:15.934Z,58.02
2018-11-27T01:27:45.086Z,45.73
2018-11-27T01:30:15.528Z,51.23
2018-11-27T01:32:44.172Z,49.77
2018-11-27T01:35:18.743Z,47.20
2018-11-27T01:37:47.896Z,48.80
2018-11-27T01:40:19.852Z,48.58
2018-11-27T01:42:49.586Z,56.30
2018-11-27T01:45:19.066Z,46.87
2018-11-27T01:47:47.775Z,50.93
2018-11-27T01:50:17.602Z,51.47
2018-11-27T01:52:47.050Z,48.97
2018-11-27T01:55:16.562Z,50.52
2018-11-27T01:57:45.070Z,50.40
2018-11-27T02:00:17.827Z,54.70
2018-11-27T02:02:46.890Z,54.33
2018-11-27T02:05:15.355Z,51.27
2018-11-27T02:07:43.878Z,50.80
2018-11-27T02:10:12.962Z,51.90
2018-11-27T02:12:42.911Z,53.53
2018-11-27T02:15:13.034Z,53.30
2018-11-27T02:17:41.606Z,48.37
2018-11-27T02:20:11.398Z,51.70
2018-11-27T02:22:40.459Z,52.50
2018-11-27T02:25:15.588Z,48.03
2018-11-27T02:27:44.754Z,48.77
2018-11-27T02:30:17.617Z,50.27
2018-11-27T02:32:46.951Z,54.37
2018-11-27T02:35:20.791Z,54.33
2018-11-27T02:37:50.802Z,53.93
2018-11-27T02:40:19.687Z,55.17
2018-11-27T02:42:48.843Z,53.03
2018-11-27T02:45:18.839Z,52.67
2018-11-27T02:47:48.727Z,54.20
2018-11-27T02:50:18.575Z,50.37
2018-11-27T02:52:47.351Z,49.83
2018-11-27T02:55:18.074Z,53.67
2018-11-27T02:57:46.993Z,59.23
2018-11-27T03:00:17.846Z,49.53
2018-11-27T03:02:46.662Z,55.10
2018-11-27T03:05:21.639Z,48.63
2018-11-27T03:07:50.492Z,49.37
2018-11-27T03:10:20.145Z,55.70
2018-11-27T03:12:49.251Z,56.13
2018-11-27T03:15:18.606Z,48.07
2018-11-27T03:17:47.722Z,51.90
2018-11-27T03:20:17.483Z,50.58
2018-11-27T03:22:46.334Z,50.90
2018-11-27T03:25:16.169Z,51.60
2018-11-27T03:27:45.882Z,53.00
2018-11-27T03:30:19.535Z,58.43
2018-11-27T03:32:48.400Z,57.63
2018-11-27T03:35:18.118Z,54.10
2018-11-27T03:37:47.660Z,52.93
2018-11-27T03:40:19.976Z,50.78
2018-11-27T03:42:48.874Z,50.57
2018-11-27T03:45:19.032Z,53.33
2018-11-27T03:50:26.228Z,53.50
2018-11-27T03:52:55.322Z,49.50
2018-11-27T03:55:24.070Z,51.03
2018-11-27T03:57:52.927Z,55.87
2018-11-27T04:00:24.543Z,53.40
2018-11-27T04:02:55.455Z,52.17
2018-11-27T04:05:25.159Z,54.07
2018-11-27T04:07:54.069Z,43.67
2018-11-27T04:11:25.750Z,50.53
2018-11-27T04:13:54.831Z,48.90
2018-11-27T04:16:23.979Z,59.07
2018-11-27T04:18:52.786Z,56.70
2018-11-27T04:21:21.566Z,51.50
2018-11-27T04:23:50.666Z,51.03
2018-11-27T04:26:19.516Z,49.90
2018-11-27T04:28:48.346Z,56.43
2018-11-27T04:31:17.805Z,55.53
2018-11-27T04:33:46.986Z,51.57
2018-11-27T04:36:16.294Z,53.15
2018-11-27T04:38:45.023Z,43.57
2018-11-27T04:41:14.252Z,36.73
2018-11-27T04:43:43.091Z,27.27
2018-11-27T04:46:11.906Z,26.43
2018-11-27T04:48:41.268Z,16.90
2018-11-27T04:51:10.048Z,14.47
2018-11-27T04:53:39.162Z,16.20
2018-11-27T04:56:07.902Z,17.73
2018-11-27T04:58:36.570Z,16.73
2018-11-27T05:01:06.009Z,15.33
2018-11-27T05:03:35.066Z,16.37
2018-11-27T05:06:03.842Z,13.87
2018-11-27T05:08:32.621Z,15.43
2018-11-27T05:11:01.333Z,17.97
2018-11-27T05:13:30.167Z,16.73
2018-11-27T05:15:58.948Z,13.63
2018-11-27T05:18:28.058Z,15.13
2018-11-27T05:20:57.164Z,16.87
2018-11-27T05:23:25.950Z,20.30
2018-11-27T05:25:55.314Z,15.70
2018-11-27T05:28:24.102Z,16.73
2018-11-27T05:30:52.901Z,17.10
2018-11-27T05:33:21.670Z,14.27
2018-11-27T05:35:50.486Z,15.83
2018-11-27T05:38:19.274Z,18.70
2018-11-27T05:40:47.933Z,19.07
2018-11-27T05:44:19.534Z,21.42
2018-11-27T05:46:48.313Z,20.63
2018-11-27T05:49:17.089Z,18.77
2018-11-27T05:51:46.357Z,21.10
2018-11-27T05:54:15.201Z,20.93
2018-11-27T05:56:43.959Z,19.43
2018-11-27T05:59:12.639Z,18.50
2018-11-27T06:01:41.413Z,21.60
2018-11-27T06:04:10.205Z,20.53
2018-11-27T06:06:38.990Z,24.10
2018-11-27T06:09:10.893Z,55.67
2018-11-27T06:11:40.049Z,38.43
2018-11-27T06:14:08.825Z,44.67
2018-11-27T06:16:37.881Z,47.53
2018-11-27T06:19:06.845Z,39.50
2018-11-27T06:21:35.845Z,23.27
2018-11-27T06:24:05.225Z,18.50
2018-11-27T06:26:38.064Z,16.80
2018-11-27T06:29:06.845Z,18.07
2018-11-27T06:31:35.649Z,17.90
2018-11-27T06:34:05.560Z,15.60
2018-11-27T06:36:34.372Z,12.37
2018-11-27T06:39:03.424Z,14.73
2018-11-27T06:41:32.589Z,15.10
2018-11-27T06:44:01.512Z,18.20
2018-11-27T06:46:30.377Z,14.43
2018-11-27T06:48:59.152Z,18.53
2018-11-27T06:51:28.696Z,16.47
2018-11-27T06:53:57.613Z,14.73
2018-11-27T06:56:26.692Z,11.93
2018-11-27T06:58:55.524Z,15.00
2018-11-27T07:01:24.632Z,15.07
2018-11-27T07:03:53.826Z,12.93
2018-11-27T07:06:22.656Z,17.20
2018-11-27T07:08:51.446Z,15.38
2018-11-27T07:11:20.701Z,19.80
2018-11-27T07:13:49.531Z,21.70
2018-11-27T07:16:18.396Z,20.40
2018-11-27T07:18:47.276Z,19.10
2018-11-27T07:21:17.320Z,18.10
2018-11-27T07:23:46.220Z,19.10
2018-11-27T07:26:15.200Z,23.00
2018-11-27T07:28:44.087Z,16.80
2018-11-27T07:31:13.344Z,19.35
2018-11-27T07:33:42.427Z,23.07
2018-11-27T07:36:11.655Z,17.90
2018-11-27T07:38:40.514Z,13.87
2018-11-27T07:41:09.363Z,20.77
2018-11-27T07:43:38.475Z,21.03
2018-11-27T07:46:07.363Z,19.67
2018-11-27T07:48:36.955Z,19.80
2018-11-27T07:51:06.446Z,21.33
2018-11-27T07:53:35.403Z,20.37
2018-11-27T07:56:05.948Z,26.93
2018-11-27T07:58:34.879Z,27.33
2018-11-27T08:01:03.839Z,31.47
2018-11-27T08:03:33.068Z,36.73
2018-11-27T08:06:03.011Z,37.83
2018-11-27T08:08:32.471Z,42.53
2018-11-27T08:11:01.313Z,42.43
2018-11-27T08:13:31.087Z,42.23
2018-11-27T08:15:59.927Z,49.87
2018-11-27T08:18:28.791Z,50.00
2018-11-27T08:20:58.043Z,50.17
2018-11-27T08:23:27.595Z,41.87
2018-11-27T08:25:56.911Z,47.80
2018-11-27T08:28:25.995Z,40.58
2018-11-27T08:30:54.999Z,41.10
2018-11-27T08:33:24.022Z,44.33
2018-11-27T08:35:53.295Z,37.27
2018-11-27T08:38:22.531Z,46.77
2018-11-27T08:43:46.499Z,48.70
2018-11-27T08:46:15.467Z,51.23
2018-11-27T08:48:44.451Z,58.57
2018-11-27T08:51:22.611Z,53.95
2018-11-27T08:53:51.672Z,38.53
2018-11-27T08:56:20.719Z,36.33
2018-11-27T08:58:49.859Z,39.03
2018-11-27T09:01:19.331Z,38.77
2018-11-27T09:03:49.283Z,30.70
2018-11-27T09:06:18.414Z,26.60
2018-11-27T09:08:47.847Z,25.63
2018-11-27T09:11:16.799Z,26.17
2018-11-27T09:13:46.031Z,26.00
2018-11-27T09:16:14.935Z,31.87
2018-11-27T09:18:44.599Z,26.83
2018-11-27T09:21:13.698Z,35.47
2018-11-27T09:23:43.011Z,38.73
2018-11-27T09:26:12.271Z,34.50
2018-11-27T09:28:41.135Z,27.63
2018-11-27T09:31:10.175Z,32.03
2018-11-27T09:33:39.139Z,29.20
2018-11-27T09:36:08.010Z,26.30
2018-11-27T09:38:37.723Z,27.00
2018-11-27T09:41:07.011Z,31.37
2018-11-27T09:43:35.966Z,29.37
2018-11-27T09:46:05.179Z,34.17
2018-11-27T09:48:34.098Z,34.97
2018-11-27T09:51:03.039Z,37.00
2018-11-27T09:53:32.139Z,33.07
2018-11-27T09:56:01.667Z,37.90
2018-11-27T09:58:31.028Z,32.63
2018-11-27T10:00:59.955Z,32.17
2018-11-27T10:03:28.811Z,31.20
2018-11-27T10:05:57.771Z,49.47
2018-11-27T10:08:26.776Z,51.73
2018-11-27T10:10:55.671Z,48.17
2018-11-27T10:13:24.683Z,45.20
2018-11-27T10:15:53.627Z,70.30
2018-11-27T10:18:22.639Z,73.00
2018-11-27T10:20:52.167Z,58.33
2018-11-27T10:23:21.269Z,43.07
2018-11-27T10:28:55.191Z,50.20
2018-11-27T10:31:24.227Z,53.73
2018-11-27T10:33:52.927Z,49.20
2018-11-27T10:36:21.655Z,51.92
2018-11-27T10:38:50.755Z,46.50
2018-11-27T10:41:20.603Z,48.20
2018-11-27T10:43:49.832Z,47.45
2018-11-27T10:46:19.411Z,28.03
2018-11-27T10:48:48.335Z,29.48
2018-11-27T10:51:17.283Z,29.57
2018-11-27T10:53:46.793Z,18.37
2018-11-27T10:56:16.024Z,19.10
2018-11-27T10:58:45.915Z,17.20
2018-11-27T11:01:20.147Z,22.58
2018-11-27T11:03:49.083Z,23.53
2018-11-27T11:06:17.985Z,24.87
2018-11-27T11:08:46.887Z,6.85
2018-11-27T11:11:16.159Z,7.77
2018-11-27T11:13:45.347Z,6.55
2018-11-27T11:16:14.956Z,5.07
2018-11-27T11:18:43.843Z,8.53
2018-11-27T11:21:13.219Z,9.03
2018-11-27T11:23:42.120Z,19.97
2018-11-27T11:26:11.127Z,21.50
2018-11-27T11:28:40.019Z,28.27
2018-11-27T11:31:08.896Z,36.87
2018-11-27T11:33:37.818Z,19.70
2018-11-27T11:36:07.526Z,23.22
2018-11-27T11:38:37.070Z,22.33
2018-11-27T11:41:07.110Z,19.00
2018-11-27T11:43:35.970Z,16.83
2018-11-27T11:46:06.115Z,16.33
2018-11-27T11:48:35.496Z,8.58
2018-11-27T11:51:06.178Z,10.77
2018-11-27T11:53:35.107Z,9.77
2018-11-27T11:56:04.043Z,14.05
2018-11-27T11:58:32.854Z,13.03
2018-11-27T12:01:01.778Z,15.90
2018-11-27T12:03:30.634Z,16.67
2018-11-27T12:05:59.544Z,24.40
2018-11-27T12:08:28.446Z,25.23
2018-11-27T12:10:57.686Z,22.42
2018-11-27T12:13:26.874Z,28.07
2018-11-27T12:15:56.062Z,28.37
2018-11-27T12:18:25.362Z,19.63
2018-11-27T12:20:54.236Z,21.20
2018-11-27T12:23:23.098Z,22.47
2018-11-27T12:25:52.000Z,25.55
2018-11-27T12:28:20.848Z,24.30
2018-11-27T12:30:49.725Z,19.57
2018-11-27T12:33:18.646Z,22.65
2018-11-27T12:35:48.075Z,24.90
2018-11-27T12:38:16.946Z,28.85
2018-11-27T12:40:45.914Z,25.17
2018-11-27T12:43:14.798Z,23.37
2018-11-27T12:45:43.658Z,22.10
2018-11-27T12:48:12.954Z,18.07
2018-11-27T12:50:45.687Z,23.47
2018-11-27T12:53:17.102Z,25.40
2018-11-27T12:55:54.026Z,36.85
2018-11-27T12:58:22.910Z,33.67
2018-11-27T13:00:52.498Z,28.20
2018-11-27T13:03:22.195Z,23.87
2018-11-27T13:05:51.113Z,20.97
2018-11-27T13:08:21.449Z,8.53
2018-11-27T13:10:50.430Z,8.27
2018-11-27T13:13:19.765Z,10.13
2018-11-27T13:15:49.001Z,9.80
2018-11-27T13:18:18.003Z,9.50
2018-11-27T13:20:46.906Z,11.07
2018-11-27T13:23:15.942Z,13.37
2018-11-27T13:25:45.073Z,13.47
2018-11-27T13:28:14.723Z,11.10
2018-11-27T13:31:08.725Z,10.80
2018-11-27T13:33:49.058Z,13.03
2018-11-27T13:36:17.958Z,13.23
2018-11-27T13:38:47.205Z,16.33
2018-11-27T13:41:16.085Z,20.67
2018-11-27T13:43:45.633Z,17.87
2018-11-27T13:46:14.809Z,17.40
2018-11-27T13:48:43.729Z,18.60
2018-11-27T13:51:12.657Z,24.43
2018-11-27T13:53:41.738Z,20.90
2018-11-27T13:56:10.899Z,22.63
2018-11-27T13:58:40.347Z,28.10
2018-11-27T14:01:09.385Z,22.37
2018-11-27T14:03:38.277Z,33.00
2018-11-27T14:06:07.411Z,34.43
2018-11-27T14:08:36.404Z,41.93
2018-11-27T14:11:05.452Z,46.83
2018-11-27T14:13:34.369Z,31.77
2018-11-27T14:16:04.039Z,38.33
2018-11-27T14:18:33.410Z,49.00
2018-11-27T14:21:02.710Z,34.27
2018-11-27T14:23:32.814Z,35.53
2018-11-27T14:26:01.955Z,22.70
2018-11-27T14:28:31.008Z,20.43
2018-11-27T14:30:59.824Z,22.43
2018-11-27T14:33:28.537Z,22.50
2018-11-27T14:38:37.896Z,18.73
2018-11-27T14:41:06.480Z,17.37
2018-11-27T14:43:35.380Z,19.67
2018-11-27T14:46:07.104Z,23.83
2018-11-27T14:48:35.960Z,24.57
2018-11-27T14:51:08.973Z,20.43
2018-11-27T14:53:38.540Z,22.40
2018-11-27T14:56:07.424Z,23.35
2018-11-27T14:58:37.608Z,20.90
2018-11-27T15:01:10.852Z,57.03
2018-11-27T15:03:39.886Z,34.73
2018-11-27T15:06:08.584Z,37.30
2018-11-27T15:08:37.312Z,37.63
2018-11-27T15:11:06.460Z,38.67
2018-11-27T15:13:35.308Z,63.03
2018-11-27T15:16:05.114Z,40.77
2018-11-27T15:18:34.320Z,30.90
2018-11-27T15:21:03.149Z,33.90
2018-11-27T15:23:31.948Z,31.50
2018-11-27T15:26:00.724Z,35.20
2018-11-27T15:28:54.660Z,42.73
2018-11-27T15:34:12.045Z,44.60
2018-11-27T15:39:24.703Z,48.10
2018-11-27T15:41:53.356Z,48.80
2018-11-27T15:44:22.272Z,54.17
2018-11-27T15:46:50.825Z,50.20
2018-11-27T15:49:19.453Z,55.53
2018-11-27T15:51:48.173Z,51.77
2018-11-27T15:54:25.917Z,54.53
2018-11-27T15:56:54.744Z,56.97
2018-11-27T15:59:23.581Z,55.25
2018-11-27T16:01:52.801Z,58.40
2018-11-27T16:04:23.456Z,71.27
2018-11-27T16:06:52.380Z,43.20
2018-11-27T16:09:21.200Z,34.47
2018-11-27T16:11:50.106Z,44.67
2018-11-27T16:14:19.408Z,42.67
2018-11-27T16:16:48.356Z,24.17
2018-11-27T16:19:17.260Z,25.40
2018-11-27T16:21:46.120Z,17.07
2018-11-27T16:24:14.956Z,10.53
2018-11-27T16:51:15.905Z,16.70
2018-11-27T16:53:44.731Z,16.03
2018-11-27T16:56:17.749Z,26.50
2018-11-27T16:58:46.556Z,18.60
2018-11-27T17:01:15.177Z,17.90
2018-11-27T17:03:44.161Z,18.37
2018-11-27T17:06:13.418Z,21.77
2018-11-27T17:08:42.319Z,15.93
2018-11-27T17:11:11.310Z,21.02
2018-11-27T17:13:40.067Z,22.90
2018-11-27T17:16:08.937Z,28.07
2018-11-27T17:18:37.879Z,27.80
2018-11-27T17:21:06.782Z,29.23
2018-11-27T17:23:35.753Z,25.63
2018-11-27T17:26:07.323Z,27.22
2018-11-27T17:28:36.202Z,32.13
2018-11-27T17:31:11.185Z,27.13
2018-11-27T17:33:45.123Z,33.77
2018-11-27T17:36:17.714Z,74.43
2018-11-27T17:50:10.965Z,44.93
2018-11-27T17:52:39.698Z,30.83
2018-11-27T17:55:09.621Z,22.73
2018-11-27T17:58:23.300Z,23.37
2018-11-27T18:00:53.301Z,16.33
2018-11-27T18:03:21.969Z,12.67
2018-11-27T18:05:50.542Z,10.78
2018-11-27T18:08:19.209Z,11.57
2018-11-27T18:10:48.148Z,10.37
2018-11-27T18:13:17.025Z,8.83
2018-11-27T18:15:46.349Z,5.77
2018-11-27T18:18:15.350Z,3.80
2018-11-27T18:20:43.920Z,4.17
2018-11-27T18:23:13.309Z,2.33
2018-11-27T18:25:41.946Z,3.43
2018-11-27T18:28:10.687Z,5.97
2018-11-27T18:30:39.232Z,4.57
2018-11-27T18:33:08.016Z,5.87
2018-11-27T18:35:36.688Z,5.27
2018-11-27T18:38:06.007Z,7.73
2018-11-27T18:40:42.342Z,11.73
2018-11-27T18:43:11.273Z,13.50
2018-11-27T18:45:44.935Z,14.27
2018-11-27T18:48:15.011Z,13.03
2018-11-27T18:51:21.467Z,11.87
2018-11-27T19:17:04.394Z,52.40
2018-11-27T19:20:31.323Z,48.03
2018-11-27T19:33:43.927Z,98.13
2018-11-27T19:49:32.682Z,48.97
2018-11-27T19:52:07.611Z,44.73
2018-11-27T19:54:43.252Z,37.57
2018-11-27T19:57:11.875Z,38.80
2018-11-27T19:59:40.447Z,36.77
2018-11-27T20:02:09.387Z,30.73
2018-11-27T20:04:45.118Z,35.53
2018-11-27T20:07:16.334Z,35.70
2018-11-27T20:09:45.280Z,37.60
2018-11-27T20:12:19.686Z,33.57
2018-11-27T20:14:49.730Z,33.60
2018-11-27T20:17:18.735Z,52.93
2018-11-27T20:20:17.455Z,29.13
2018-11-27T20:22:46.410Z,35.37
2018-11-27T20:25:23.504Z,24.73
2018-11-27T20:27:54.974Z,27.73
2018-11-27T20:33:13.798Z,31.53
2018-11-27T20:35:42.682Z,29.53
2018-11-27T20:38:11.773Z,32.80
2018-11-27T20:40:41.417Z,25.90
2018-11-27T20:43:10.089Z,14.63
2018-11-27T20:45:52.154Z,16.87
2018-11-27T20:49:04.132Z,6.80
2018-11-27T20:54:26.209Z,8.27
2018-11-27T20:59:48.340Z,8.27
2018-11-27T21:02:17.120Z,3.27
2018-11-27T21:04:45.932Z,6.57
2018-11-27T21:07:14.512Z,3.93
2018-11-27T21:09:43.099Z,5.37
2018-11-27T21:12:12.112Z,4.80
2018-11-27T21:14:42.185Z,3.67
2018-11-27T21:17:09.832Z,5.60
2018-11-27T21:19:38.636Z,4.13
2018-11-27T21:22:07.512Z,2.33
2018-11-27T21:24:36.239Z,3.10
2018-11-27T21:27:05.034Z,4.87
2018-11-27T21:29:34.108Z,3.93
2018-11-27T21:32:02.708Z,3.20
2018-11-27T21:34:31.228Z,2.67
2018-11-27T21:36:59.879Z,4.00
2018-11-27T21:39:28.503Z,2.60
2018-11-27T21:41:56.988Z,3.83
2018-11-27T21:44:25.839Z,3.50
2018-11-27T21:46:54.999Z,7.90
2018-11-27T21:49:23.670Z,7.37
2018-11-27T21:51:52.564Z,6.20
2018-11-27T21:54:21.300Z,3.60
2018-11-27T21:56:50.076Z,4.20
2018-11-27T21:59:18.690Z,4.77
2018-11-27T22:01:47.492Z,8.63
2018-11-27T22:04:16.244Z,11.67
2018-11-27T22:06:45.065Z,17.03
2018-11-27T22:09:13.652Z,17.63
2018-11-27T22:11:42.376Z,9.33
2018-11-27T22:16:49.448Z,4.93
2018-11-27T22:19:18.195Z,6.73
2018-11-27T22:24:27.528Z,5.27
2018-11-27T22:27:13.547Z,4.67
2018-11-27T22:29:56.029Z,3.33
2018-11-27T22:32:42.759Z,3.90
2018-11-27T22:35:18.610Z,2.07
2018-11-27T22:38:11.931Z,3.47
2018-11-27T22:40:40.724Z,4.50
2018-11-27T22:43:09.351Z,3.33
2018-11-27T22:45:39.201Z,3.73
2018-11-27T22:48:10.041Z,3.57
2018-11-27T22:50:38.735Z,3.27
2018-11-27T22:53:08.074Z,3.13
2018-11-27T22:55:36.803Z,3.13
2018-11-27T23:03:03.378Z,3.77
2018-11-27T23:05:31.999Z,4.77
2018-11-27T23:08:01.096Z,3.53
2018-11-27T23:10:32.603Z,2.83
